sensor_id;sensor_type;location;lat;lon;timestamp;temperature;humidity
23755;DHT22;12057;52.042;6.830;2023-01-08T00:03:02;10.60;99.90
23755;DHT22;12057;52.042;6.830;2023-01-08T00:08:04;10.60;99.90
23755;DHT22;12057;52.042;6.830;2023-01-08T00:13:05;10.60;99.90
23755;DHT22;12057;52.042;6.830;2023-01-08T00:18:06;10.60;99.90
23755;DHT22;12057;52.042;6.830;2023-01-08T00:23:17;10.60;99.90
23755;DHT22;12057;52.042;6.830;2023-01-08T00:28:18;10.50;99.90
23755;DHT22;12057;52.042;6.830;2023-01-08T00:33:20;10.50;99.90
23755;DHT22;12057;52.042;6.830;2023-01-08T00:38:28;10.60;99.90
23755;DHT22;12057;52.042;6.830;2023-01-08T00:43:29;10.60;99.90
23755;DHT22;12057;52.042;6.830;2023-01-08T00:48:29;10.50;99.90
23755;DHT22;12057;52.042;6.830;2023-01-08T00:53:34;10.50;99.90
23755;DHT22;12057;52.042;6.830;2023-01-08T00:58:35;10.50;99.90
23755;DHT22;12057;52.042;6.830;2023-01-08T01:03:36;10.50;99.90
23755;DHT22;12057;52.042;6.830;2023-01-08T01:08:37;10.50;99.90
23755;DHT22;12057;52.042;6.830;2023-01-08T01:13:37;10.50;99.90
23755;DHT22;12057;52.042;6.830;2023-01-08T01:18:38;10.50;99.90
23755;DHT22;12057;52.042;6.830;2023-01-08T01:23:39;10.40;99.90
23755;DHT22;12057;52.042;6.830;2023-01-08T01:28:40;10.40;99.90
23755;DHT22;12057;52.042;6.830;2023-01-08T01:33:41;10.40;99.90
23755;DHT22;12057;52.042;6.830;2023-01-08T01:38:46;10.30;99.90
23755;DHT22;12057;52.042;6.830;2023-01-08T01:43:48;10.30;99.90
23755;DHT22;12057;52.042;6.830;2023-01-08T01:48:56;10.30;99.90
23755;DHT22;12057;52.042;6.830;2023-01-08T01:54:03;10.20;99.90
23755;DHT22;12057;52.042;6.830;2023-01-08T01:59:05;10.30;99.90
23755;DHT22;12057;52.042;6.830;2023-01-08T02:04:11;10.30;99.90
23755;DHT22;12057;52.042;6.830;2023-01-08T02:14:31;10.30;99.90
23755;DHT22;12057;52.042;6.830;2023-01-08T02:19:42;10.40;99.90
23755;DHT22;12057;52.042;6.830;2023-01-08T02:25:20;10.40;99.90
23755;DHT22;12057;52.042;6.830;2023-01-08T02:30:22;10.30;99.90
23755;DHT22;12057;52.042;6.830;2023-01-08T02:35:36;10.30;99.90
23755;DHT22;12057;52.042;6.830;2023-01-08T02:40:57;10.40;99.90
23755;DHT22;12057;52.042;6.830;2023-01-08T02:46:01;10.30;99.90
23755;DHT22;12057;52.042;6.830;2023-01-08T02:51:16;10.30;99.90
23755;DHT22;12057;52.042;6.830;2023-01-08T02:56:35;10.30;99.90
23755;DHT22;12057;52.042;6.830;2023-01-08T03:01:37;10.30;99.90
23755;DHT22;12057;52.042;6.830;2023-01-08T03:06:39;10.30;99.90
23755;DHT22;12057;52.042;6.830;2023-01-08T03:16:59;10.40;99.90
23755;DHT22;12057;52.042;6.830;2023-01-08T03:22:00;10.50;99.90
23755;DHT22;12057;52.042;6.830;2023-01-08T03:27:05;10.50;99.90
23755;DHT22;12057;52.042;6.830;2023-01-08T03:32:12;10.50;99.90
23755;DHT22;12057;52.042;6.830;2023-01-08T03:37:15;10.40;99.90
23755;DHT22;12057;52.042;6.830;2023-01-08T03:42:19;10.40;99.90
23755;DHT22;12057;52.042;6.830;2023-01-08T03:47:21;10.50;99.90
23755;DHT22;12057;52.042;6.830;2023-01-08T03:52:27;10.50;99.90
23755;DHT22;12057;52.042;6.830;2023-01-08T03:57:28;10.50;99.90
23755;DHT22;12057;52.042;6.830;2023-01-08T04:02:29;10.50;99.90
23755;DHT22;12057;52.042;6.830;2023-01-08T04:07:30;10.50;99.90
23755;DHT22;12057;52.042;6.830;2023-01-08T04:12:31;10.60;99.90
23755;DHT22;12057;52.042;6.830;2023-01-08T04:17:32;10.60;99.90
23755;DHT22;12057;52.042;6.830;2023-01-08T04:22:32;10.50;99.90
23755;DHT22;12057;52.042;6.830;2023-01-08T04:27:33;10.40;99.90
23755;DHT22;12057;52.042;6.830;2023-01-08T04:32:34;10.00;99.90
23755;DHT22;12057;52.042;6.830;2023-01-08T04:37:35;9.70;99.90
23755;DHT22;12057;52.042;6.830;2023-01-08T04:42:36;9.60;99.90
23755;DHT22;12057;52.042;6.830;2023-01-08T04:47:36;9.50;99.90
23755;DHT22;12057;52.042;6.830;2023-01-08T04:52:37;9.40;99.90
23755;DHT22;12057;52.042;6.830;2023-01-08T04:57:38;9.30;99.90
23755;DHT22;12057;52.042;6.830;2023-01-08T05:02:38;9.30;99.90
23755;DHT22;12057;52.042;6.830;2023-01-08T05:07:39;9.20;99.90
23755;DHT22;12057;52.042;6.830;2023-01-08T05:12:40;9.20;99.90
23755;DHT22;12057;52.042;6.830;2023-01-08T05:17:41;9.10;99.90
23755;DHT22;12057;52.042;6.830;2023-01-08T05:22:41;9.10;99.90
23755;DHT22;12057;52.042;6.830;2023-01-08T05:27:42;9.10;99.90
23755;DHT22;12057;52.042;6.830;2023-01-08T05:32:43;9.00;99.90
23755;DHT22;12057;52.042;6.830;2023-01-08T05:37:44;9.00;99.90
23755;DHT22;12057;52.042;6.830;2023-01-08T05:42:45;9.00;99.90
23755;DHT22;12057;52.042;6.830;2023-01-08T05:47:45;9.00;99.90
23755;DHT22;12057;52.042;6.830;2023-01-08T05:52:46;8.90;99.90
23755;DHT22;12057;52.042;6.830;2023-01-08T05:57:47;8.90;99.90
23755;DHT22;12057;52.042;6.830;2023-01-08T06:02:47;8.90;99.90
23755;DHT22;12057;52.042;6.830;2023-01-08T06:07:48;9.00;99.90
23755;DHT22;12057;52.042;6.830;2023-01-08T06:12:49;9.00;99.90
23755;DHT22;12057;52.042;6.830;2023-01-08T06:17:50;9.00;99.90
23755;DHT22;12057;52.042;6.830;2023-01-08T06:22:52;9.00;99.90
23755;DHT22;12057;52.042;6.830;2023-01-08T06:27:53;8.90;99.90
23755;DHT22;12057;52.042;6.830;2023-01-08T06:32:58;8.90;99.90
23755;DHT22;12057;52.042;6.830;2023-01-08T06:37:59;8.90;99.90
23755;DHT22;12057;52.042;6.830;2023-01-08T06:43:01;9.00;99.90
23755;DHT22;12057;52.042;6.830;2023-01-08T06:48:04;9.00;99.90
23755;DHT22;12057;52.042;6.830;2023-01-08T06:53:05;9.00;99.90
23755;DHT22;12057;52.042;6.830;2023-01-08T06:58:06;9.10;99.90
23755;DHT22;12057;52.042;6.830;2023-01-08T07:03:07;9.10;99.90
23755;DHT22;12057;52.042;6.830;2023-01-08T07:08:13;9.10;99.90
23755;DHT22;12057;52.042;6.830;2023-01-08T07:13:14;9.20;99.90
23755;DHT22;12057;52.042;6.830;2023-01-08T07:18:15;9.20;99.90
23755;DHT22;12057;52.042;6.830;2023-01-08T07:23:16;9.20;99.90
23755;DHT22;12057;52.042;6.830;2023-01-08T07:28:17;9.20;99.90
23755;DHT22;12057;52.042;6.830;2023-01-08T07:33:17;9.30;99.90
23755;DHT22;12057;52.042;6.830;2023-01-08T07:38:18;9.20;99.90
23755;DHT22;12057;52.042;6.830;2023-01-08T07:43:19;9.20;99.90
23755;DHT22;12057;52.042;6.830;2023-01-08T07:48:20;9.20;99.90
23755;DHT22;12057;52.042;6.830;2023-01-08T07:53:21;9.10;99.90
23755;DHT22;12057;52.042;6.830;2023-01-08T07:58:21;9.10;99.90
23755;DHT22;12057;52.042;6.830;2023-01-08T08:03:23;8.90;99.90
23755;DHT22;12057;52.042;6.830;2023-01-08T08:08:23;8.90;99.90
23755;DHT22;12057;52.042;6.830;2023-01-08T08:13:24;8.70;99.90
23755;DHT22;12057;52.042;6.830;2023-01-08T08:18:25;8.70;99.90
23755;DHT22;12057;52.042;6.830;2023-01-08T08:23:26;8.60;99.90
23755;DHT22;12057;52.042;6.830;2023-01-08T08:28:27;8.50;99.90
23755;DHT22;12057;52.042;6.830;2023-01-08T08:33:27;8.40;99.90
23755;DHT22;12057;52.042;6.830;2023-01-08T08:38:28;8.40;99.90
23755;DHT22;12057;52.042;6.830;2023-01-08T08:43:29;8.30;99.90
23755;DHT22;12057;52.042;6.830;2023-01-08T08:48:30;8.30;99.90
23755;DHT22;12057;52.042;6.830;2023-01-08T08:53:30;8.40;99.90
23755;DHT22;12057;52.042;6.830;2023-01-08T08:58:31;8.40;99.90
23755;DHT22;12057;52.042;6.830;2023-01-08T09:03:32;8.50;99.90
23755;DHT22;12057;52.042;6.830;2023-01-08T09:08:33;8.60;99.90
23755;DHT22;12057;52.042;6.830;2023-01-08T09:13:36;8.80;99.90
23755;DHT22;12057;52.042;6.830;2023-01-08T09:18:37;8.90;99.90
23755;DHT22;12057;52.042;6.830;2023-01-08T09:23:38;9.00;99.90
23755;DHT22;12057;52.042;6.830;2023-01-08T09:28:38;9.10;99.90
23755;DHT22;12057;52.042;6.830;2023-01-08T09:33:39;9.20;99.90
23755;DHT22;12057;52.042;6.830;2023-01-08T09:38:40;9.30;99.90
23755;DHT22;12057;52.042;6.830;2023-01-08T09:43:48;9.40;99.90
23755;DHT22;12057;52.042;6.830;2023-01-08T09:48:51;9.50;99.90
23755;DHT22;12057;52.042;6.830;2023-01-08T09:53:55;9.70;99.90
23755;DHT22;12057;52.042;6.830;2023-01-08T09:59:01;9.90;99.90
23755;DHT22;12057;52.042;6.830;2023-01-08T10:04:17;10.00;99.90
23755;DHT22;12057;52.042;6.830;2023-01-08T10:09:30;10.00;99.90
23755;DHT22;12057;52.042;6.830;2023-01-08T10:14:36;9.70;99.90
23755;DHT22;12057;52.042;6.830;2023-01-08T10:19:38;9.60;99.90
23755;DHT22;12057;52.042;6.830;2023-01-08T10:24:39;9.70;99.90
23755;DHT22;12057;52.042;6.830;2023-01-08T10:29:40;9.70;99.90
23755;DHT22;12057;52.042;6.830;2023-01-08T10:34:48;9.70;99.90
23755;DHT22;12057;52.042;6.830;2023-01-08T10:39:50;9.80;99.90
23755;DHT22;12057;52.042;6.830;2023-01-08T10:45:03;9.80;99.90
23755;DHT22;12057;52.042;6.830;2023-01-08T10:50:21;9.90;99.90
23755;DHT22;12057;52.042;6.830;2023-01-08T10:55:28;10.10;99.90
23755;DHT22;12057;52.042;6.830;2023-01-08T11:00:32;10.20;99.90
23755;DHT22;12057;52.042;6.830;2023-01-08T11:05:40;10.20;99.90
23755;DHT22;12057;52.042;6.830;2023-01-08T11:10:51;10.20;99.90
23755;DHT22;12057;52.042;6.830;2023-01-08T11:16:04;10.10;99.90
23755;DHT22;12057;52.042;6.830;2023-01-08T11:21:28;10.20;99.90
23755;DHT22;12057;52.042;6.830;2023-01-08T11:26:31;10.20;99.90
23755;DHT22;12057;52.042;6.830;2023-01-08T11:37:26;10.20;99.90
23755;DHT22;12057;52.042;6.830;2023-01-08T11:53:45;10.30;99.90
23755;DHT22;12057;52.042;6.830;2023-01-08T12:04:25;10.40;99.90
23755;DHT22;12057;52.042;6.830;2023-01-08T12:20:35;10.10;99.90
23755;DHT22;12057;52.042;6.830;2023-01-08T12:36:45;10.00;99.90
23755;DHT22;12057;52.042;6.830;2023-01-08T12:41:47;9.90;99.90
23755;DHT22;12057;52.042;6.830;2023-01-08T12:46:49;9.80;99.90
23755;DHT22;12057;52.042;6.830;2023-01-08T12:52:11;9.80;99.90
23755;DHT22;12057;52.042;6.830;2023-01-08T13:07:50;9.70;99.90
23755;DHT22;12057;52.042;6.830;2023-01-08T13:12:52;10.00;99.90
23755;DHT22;12057;52.042;6.830;2023-01-08T13:17:57;10.50;99.90
23755;DHT22;12057;52.042;6.830;2023-01-08T13:23:00;10.60;99.90
23755;DHT22;12057;52.042;6.830;2023-01-08T13:33:34;10.70;99.90
23755;DHT22;12057;52.042;6.830;2023-01-08T13:38:40;10.60;99.90
23755;DHT22;12057;52.042;6.830;2023-01-08T13:43:41;10.40;99.90
23755;DHT22;12057;52.042;6.830;2023-01-08T13:48:56;10.30;99.90
23755;DHT22;12057;52.042;6.830;2023-01-08T14:04:22;10.10;99.90
23755;DHT22;12057;52.042;6.830;2023-01-08T14:09:24;10.00;99.90
23755;DHT22;12057;52.042;6.830;2023-01-08T14:14:25;9.90;99.90
23755;DHT22;12057;52.042;6.830;2023-01-08T14:19:26;9.80;99.90
23755;DHT22;12057;52.042;6.830;2023-01-08T14:24:30;9.80;99.90
23755;DHT22;12057;52.042;6.830;2023-01-08T14:29:31;9.90;99.90
23755;DHT22;12057;52.042;6.830;2023-01-08T14:34:35;9.90;99.90
23755;DHT22;12057;52.042;6.830;2023-01-08T14:39:37;9.80;99.90
23755;DHT22;12057;52.042;6.830;2023-01-08T14:44:39;9.70;99.90
23755;DHT22;12057;52.042;6.830;2023-01-08T14:49:40;9.60;99.90
23755;DHT22;12057;52.042;6.830;2023-01-08T14:54:45;9.60;99.90
23755;DHT22;12057;52.042;6.830;2023-01-08T14:59:58;9.60;99.90
23755;DHT22;12057;52.042;6.830;2023-01-08T15:05:00;9.60;99.90
23755;DHT22;12057;52.042;6.830;2023-01-08T15:10:01;9.50;99.90
23755;DHT22;12057;52.042;6.830;2023-01-08T15:15:21;9.40;99.90
23755;DHT22;12057;52.042;6.830;2023-01-08T15:20:28;9.40;99.90
23755;DHT22;12057;52.042;6.830;2023-01-08T15:25:31;9.30;99.90
23755;DHT22;12057;52.042;6.830;2023-01-08T15:30:44;9.20;99.90
23755;DHT22;12057;52.042;6.830;2023-01-08T15:35:45;9.10;99.90
23755;DHT22;12057;52.042;6.830;2023-01-08T15:40:47;9.10;99.90
23755;DHT22;12057;52.042;6.830;2023-01-08T15:45:48;9.00;99.90
23755;DHT22;12057;52.042;6.830;2023-01-08T15:50:50;8.90;99.90
23755;DHT22;12057;52.042;6.830;2023-01-08T15:55:52;8.80;99.90
23755;DHT22;12057;52.042;6.830;2023-01-08T16:00:53;8.70;99.90
23755;DHT22;12057;52.042;6.830;2023-01-08T16:05:54;8.60;99.90
23755;DHT22;12057;52.042;6.830;2023-01-08T16:10:54;8.50;99.90
23755;DHT22;12057;52.042;6.830;2023-01-08T16:15:55;8.50;99.90
23755;DHT22;12057;52.042;6.830;2023-01-08T16:20:59;8.40;99.90
23755;DHT22;12057;52.042;6.830;2023-01-08T16:26:08;8.30;99.90
23755;DHT22;12057;52.042;6.830;2023-01-08T16:31:10;8.20;99.90
23755;DHT22;12057;52.042;6.830;2023-01-08T16:36:11;8.40;99.90
23755;DHT22;12057;52.042;6.830;2023-01-08T16:41:11;8.10;99.90
23755;DHT22;12057;52.042;6.830;2023-01-08T16:46:16;8.00;99.90
23755;DHT22;12057;52.042;6.830;2023-01-08T16:51:17;8.00;99.90
23755;DHT22;12057;52.042;6.830;2023-01-08T16:56:18;7.90;99.90
23755;DHT22;12057;52.042;6.830;2023-01-08T17:01:19;7.90;99.90
23755;DHT22;12057;52.042;6.830;2023-01-08T17:06:20;7.80;99.90
23755;DHT22;12057;52.042;6.830;2023-01-08T17:11:21;7.80;99.90
23755;DHT22;12057;52.042;6.830;2023-01-08T17:16:26;7.80;99.90
23755;DHT22;12057;52.042;6.830;2023-01-08T17:21:27;7.80;99.90
23755;DHT22;12057;52.042;6.830;2023-01-08T17:26:27;7.90;99.90
23755;DHT22;12057;52.042;6.830;2023-01-08T17:31:28;8.00;99.90
23755;DHT22;12057;52.042;6.830;2023-01-08T17:36:32;8.00;99.90
23755;DHT22;12057;52.042;6.830;2023-01-08T17:41:37;8.00;99.90
23755;DHT22;12057;52.042;6.830;2023-01-08T17:46:56;8.10;99.90
23755;DHT22;12057;52.042;6.830;2023-01-08T17:51:57;8.20;99.90
23755;DHT22;12057;52.042;6.830;2023-01-08T17:56:58;8.10;99.90
23755;DHT22;12057;52.042;6.830;2023-01-08T18:01:58;8.20;99.90
23755;DHT22;12057;52.042;6.830;2023-01-08T18:06:59;8.20;99.90
23755;DHT22;12057;52.042;6.830;2023-01-08T18:12:00;8.20;99.90
23755;DHT22;12057;52.042;6.830;2023-01-08T18:17:01;8.30;99.90
23755;DHT22;12057;52.042;6.830;2023-01-08T18:22:01;8.40;99.90
23755;DHT22;12057;52.042;6.830;2023-01-08T18:27:03;8.40;99.90
23755;DHT22;12057;52.042;6.830;2023-01-08T18:32:04;8.30;99.90
23755;DHT22;12057;52.042;6.830;2023-01-08T18:37:04;8.20;99.90
23755;DHT22;12057;52.042;6.830;2023-01-08T18:42:06;8.10;99.90
23755;DHT22;12057;52.042;6.830;2023-01-08T18:47:26;8.10;99.90
23755;DHT22;12057;52.042;6.830;2023-01-08T18:52:28;8.10;99.90
23755;DHT22;12057;52.042;6.830;2023-01-08T18:57:29;8.00;99.90
23755;DHT22;12057;52.042;6.830;2023-01-08T19:02:30;8.00;99.90
23755;DHT22;12057;52.042;6.830;2023-01-08T19:07:33;7.90;99.90
23755;DHT22;12057;52.042;6.830;2023-01-08T19:12:37;7.90;99.90
23755;DHT22;12057;52.042;6.830;2023-01-08T19:17:38;7.80;99.90
23755;DHT22;12057;52.042;6.830;2023-01-08T19:22:39;7.80;99.90
23755;DHT22;12057;52.042;6.830;2023-01-08T19:27:40;7.70;99.90
23755;DHT22;12057;52.042;6.830;2023-01-08T19:32:41;7.60;99.90
23755;DHT22;12057;52.042;6.830;2023-01-08T19:37:41;7.60;99.90
23755;DHT22;12057;52.042;6.830;2023-01-08T19:42:42;7.50;99.90
23755;DHT22;12057;52.042;6.830;2023-01-08T19:48:02;7.50;99.90
23755;DHT22;12057;52.042;6.830;2023-01-08T19:53:02;7.50;99.90
23755;DHT22;12057;52.042;6.830;2023-01-08T19:58:04;7.50;99.90
23755;DHT22;12057;52.042;6.830;2023-01-08T20:03:05;7.50;99.90
23755;DHT22;12057;52.042;6.830;2023-01-08T20:08:06;7.50;99.90
23755;DHT22;12057;52.042;6.830;2023-01-08T20:13:07;7.50;99.90
23755;DHT22;12057;52.042;6.830;2023-01-08T20:18:07;7.50;99.90
23755;DHT22;12057;52.042;6.830;2023-01-08T20:23:08;7.50;99.90
23755;DHT22;12057;52.042;6.830;2023-01-08T20:28:10;7.50;99.90
23755;DHT22;12057;52.042;6.830;2023-01-08T20:33:11;7.50;99.90
23755;DHT22;12057;52.042;6.830;2023-01-08T20:38:12;7.60;99.90
23755;DHT22;12057;52.042;6.830;2023-01-08T20:43:13;7.60;99.90
23755;DHT22;12057;52.042;6.830;2023-01-08T20:48:13;7.60;99.90
23755;DHT22;12057;52.042;6.830;2023-01-08T20:53:14;7.60;99.90
23755;DHT22;12057;52.042;6.830;2023-01-08T20:58:15;7.60;99.90
23755;DHT22;12057;52.042;6.830;2023-01-08T21:03:16;7.60;99.90
23755;DHT22;12057;52.042;6.830;2023-01-08T21:08:17;7.60;99.90
23755;DHT22;12057;52.042;6.830;2023-01-08T21:13:18;7.80;99.90
23755;DHT22;12057;52.042;6.830;2023-01-08T21:18:19;7.90;99.90
23755;DHT22;12057;52.042;6.830;2023-01-08T21:23:22;7.90;99.90
23755;DHT22;12057;52.042;6.830;2023-01-08T21:28:24;7.90;99.90
23755;DHT22;12057;52.042;6.830;2023-01-08T21:33:25;7.80;99.90
23755;DHT22;12057;52.042;6.830;2023-01-08T21:38:29;7.90;99.90
23755;DHT22;12057;52.042;6.830;2023-01-08T21:43:30;7.90;99.90
23755;DHT22;12057;52.042;6.830;2023-01-08T21:48:49;8.00;99.90
23755;DHT22;12057;52.042;6.830;2023-01-08T21:53:51;8.10;99.90
23755;DHT22;12057;52.042;6.830;2023-01-08T21:58:52;8.20;99.90
23755;DHT22;12057;52.042;6.830;2023-01-08T22:03:53;8.40;99.90
23755;DHT22;12057;52.042;6.830;2023-01-08T22:08:54;8.40;99.90
23755;DHT22;12057;52.042;6.830;2023-01-08T22:13:56;8.40;99.90
23755;DHT22;12057;52.042;6.830;2023-01-08T22:18:57;8.40;99.90
23755;DHT22;12057;52.042;6.830;2023-01-08T22:23:58;8.40;99.90
23755;DHT22;12057;52.042;6.830;2023-01-08T22:28:58;8.40;99.90
23755;DHT22;12057;52.042;6.830;2023-01-08T22:33:59;8.40;99.90
23755;DHT22;12057;52.042;6.830;2023-01-08T22:39:00;8.50;99.90
23755;DHT22;12057;52.042;6.830;2023-01-08T22:44:01;8.50;99.90
23755;DHT22;12057;52.042;6.830;2023-01-08T22:49:02;8.50;99.90
23755;DHT22;12057;52.042;6.830;2023-01-08T22:54:03;8.50;99.90
23755;DHT22;12057;52.042;6.830;2023-01-08T22:59:04;8.50;99.90
23755;DHT22;12057;52.042;6.830;2023-01-08T23:04:05;8.50;99.90
23755;DHT22;12057;52.042;6.830;2023-01-08T23:09:06;8.60;99.90
23755;DHT22;12057;52.042;6.830;2023-01-08T23:14:08;8.60;99.90
23755;DHT22;12057;52.042;6.830;2023-01-08T23:19:09;8.60;99.90
23755;DHT22;12057;52.042;6.830;2023-01-08T23:24:11;8.60;99.90
23755;DHT22;12057;52.042;6.830;2023-01-08T23:29:12;8.60;99.90
23755;DHT22;12057;52.042;6.830;2023-01-08T23:34:13;8.70;99.90
23755;DHT22;12057;52.042;6.830;2023-01-08T23:39:14;8.70;99.90
23755;DHT22;12057;52.042;6.830;2023-01-08T23:44:15;8.60;99.90
23755;DHT22;12057;52.042;6.830;2023-01-08T23:49:16;8.60;99.90
23755;DHT22;12057;52.042;6.830;2023-01-08T23:54:17;8.50;99.90
23755;DHT22;12057;52.042;6.830;2023-01-08T23:59:19;8.50;99.90
